createdAt,value
2023-03-18T00:00:32.654Z,71.72
2023-03-18T00:01:37.458Z,71.66
2023-03-18T00:02:44.783Z,71.54
2023-03-18T00:03:48.882Z,71.98
2023-03-18T00:04:52.843Z,71.78
2023-03-18T00:06:04.727Z,71.95
2023-03-18T00:07:06.326Z,71.84
2023-03-18T00:08:09.588Z,71.58
2023-03-18T00:09:12.402Z,72.15
2023-03-18T00:10:16.707Z,72.27
2023-03-18T00:11:21.252Z,72.03
2023-03-18T00:12:24.754Z,72.18
2023-03-18T00:13:27.383Z,72.23
2023-03-18T00:14:29.905Z,72.07
2023-03-18T00:15:33.055Z,72.31
2023-03-18T00:16:36.673Z,72.29
2023-03-18T00:17:40.070Z,72.30
2023-03-18T00:18:43.771Z,72.29
2023-03-18T00:19:46.025Z,72.37
2023-03-18T00:20:48.535Z,72.37
2023-03-18T00:21:50.165Z,72.57
2023-03-18T00:22:52.678Z,72.46
2023-03-18T00:23:56.510Z,72.47
2023-03-18T00:24:59.107Z,72.49
2023-03-18T00:26:01.308Z,72.38
2023-03-18T00:27:03.815Z,72.52
2023-03-18T00:28:06.977Z,72.64
2023-03-18T00:29:09.672Z,72.34
2023-03-18T00:30:12.580Z,72.35
2023-03-18T00:31:16.572Z,72.40
2023-03-18T00:32:18.179Z,72.88
2023-03-18T00:33:21.123Z,72.59
2023-03-18T00:34:22.775Z,72.76
2023-03-18T00:35:27.945Z,72.87
2023-03-18T00:36:31.062Z,72.70
2023-03-18T00:37:35.670Z,72.97
2023-03-18T00:38:37.429Z,73.00
2023-03-18T00:39:44.177Z,72.95
2023-03-18T00:40:53.550Z,73.17
2023-03-18T00:41:57.016Z,72.73
2023-03-18T00:43:07.830Z,73.10
2023-03-18T00:44:11.312Z,73.24
2023-03-18T00:45:14.228Z,73.19
2023-03-18T00:46:22.050Z,73.21
2023-03-18T00:47:23.670Z,73.24
2023-03-18T00:48:27.556Z,73.31
2023-03-18T00:49:29.493Z,73.35
2023-03-18T00:50:32.456Z,73.62
2023-03-18T00:51:36.399Z,73.62
2023-03-18T00:52:39.486Z,73.63
2023-03-18T00:53:41.555Z,73.85
2023-03-18T00:54:44.044Z,73.92
2023-03-18T00:55:46.381Z,73.93
2023-03-18T00:56:49.482Z,73.78
2023-03-18T00:57:51.173Z,73.81
2023-03-18T00:58:54.740Z,73.88
2023-03-18T00:59:56.965Z,73.85
2023-03-18T01:00:59.481Z,74.22
2023-03-18T01:02:03.991Z,74.02
2023-03-18T01:03:07.741Z,74.15
2023-03-18T01:04:09.596Z,74.20
2023-03-18T01:05:13.910Z,74.31
2023-03-18T01:06:22.828Z,74.24
2023-03-18T01:07:25.853Z,74.30
2023-03-18T01:08:27.421Z,74.24
2023-03-18T01:09:30.032Z,74.12
2023-03-18T01:10:32.708Z,74.28
2023-03-18T01:11:35.746Z,74.47
2023-03-18T01:12:38.926Z,74.47
2023-03-18T01:13:42.973Z,74.34
2023-03-18T01:14:44.502Z,74.20
2023-03-18T01:15:47.989Z,74.39
2023-03-18T01:16:49.698Z,74.09
2023-03-18T01:17:56.819Z,74.20
2023-03-18T01:18:58.493Z,73.99
2023-03-18T01:20:00.963Z,74.02
2023-03-18T01:21:02.735Z,74.32
2023-03-18T01:22:06.448Z,74.10
2023-03-18T01:23:08.788Z,74.22
2023-03-18T01:24:11.500Z,74.41
2023-03-18T01:25:16.194Z,74.57
2023-03-18T01:26:19.253Z,74.43
2023-03-18T01:27:21.440Z,74.64
2023-03-18T01:28:24.690Z,74.55
2023-03-18T01:29:26.744Z,74.44
2023-03-18T01:30:30.074Z,74.53
2023-03-18T01:31:34.551Z,74.64
2023-03-18T01:32:37.883Z,74.45
2023-03-18T01:33:41.547Z,74.26
2023-03-18T01:34:44.125Z,74.43
2023-03-18T01:35:47.699Z,74.51
2023-03-18T01:36:50.499Z,74.41
2023-03-18T01:37:53.318Z,74.50
2023-03-18T01:38:56.221Z,74.53
2023-03-18T01:39:58.286Z,74.49
2023-03-18T01:41:01.823Z,74.54
2023-03-18T01:42:03.715Z,74.68
2023-03-18T01:43:14.373Z,74.41
2023-03-18T01:44:19.132Z,74.27
2023-03-18T01:45:25.491Z,74.47
2023-03-18T01:46:36.272Z,74.29
2023-03-18T01:47:39.550Z,74.58
2023-03-18T01:48:43.669Z,74.58
2023-03-18T01:49:49.135Z,74.69
2023-03-18T01:50:54.145Z,74.35
2023-03-18T01:52:00.143Z,74.86
2023-03-18T01:53:06.207Z,74.83
2023-03-18T01:54:10.338Z,74.83
2023-03-18T01:55:15.553Z,74.60
2023-03-18T01:56:19.845Z,74.78
2023-03-18T01:57:23.929Z,74.83
2023-03-18T01:58:31.954Z,74.98
2023-03-18T01:59:38.415Z,74.94
2023-03-18T02:00:45.890Z,74.88
2023-03-18T02:01:53.765Z,74.90
2023-03-18T02:02:56.517Z,74.80
2023-03-18T02:04:02.249Z,75.04
2023-03-18T02:05:09.847Z,74.98
2023-03-18T02:06:12.497Z,75.12
2023-03-18T02:07:17.003Z,75.17
2023-03-18T02:08:18.621Z,75.44
2023-03-18T02:09:21.327Z,75.11
2023-03-18T02:10:25.227Z,75.55
2023-03-18T02:11:29.044Z,75.56
2023-03-18T02:12:33.710Z,75.52
2023-03-18T02:13:39.421Z,75.65
2023-03-18T02:14:41.282Z,75.65
2023-03-18T02:15:49.873Z,75.75
2023-03-18T02:16:59.245Z,75.87
2023-03-18T02:18:06.254Z,75.84
2023-03-18T02:19:37.138Z,75.88
2023-03-18T02:20:49.429Z,76.02
2023-03-18T02:21:56.453Z,75.97
2023-03-18T02:23:05.053Z,75.88
2023-03-18T02:24:19.044Z,75.99
2023-03-18T02:25:34.645Z,76.21
2023-03-18T02:26:44.448Z,76.16
2023-03-18T02:27:52.164Z,76.17
2023-03-18T02:28:58.285Z,76.26
2023-03-18T02:30:04.058Z,76.54
2023-03-18T02:31:12.832Z,76.33
2023-03-18T02:32:17.137Z,76.65
2023-03-18T02:33:21.113Z,76.71
2023-03-18T02:34:26.003Z,76.87
2023-03-18T02:35:29.038Z,76.77
2023-03-18T02:36:34.360Z,77.09
2023-03-18T02:37:35.910Z,76.92
2023-03-18T02:38:42.729Z,76.89
2023-03-18T02:39:44.290Z,77.26
2023-03-18T02:40:46.984Z,77.18
2023-03-18T02:41:48.779Z,77.56
2023-03-18T02:43:19.258Z,77.45
2023-03-18T02:44:22.269Z,77.45
2023-03-18T02:45:38.441Z,77.65
2023-03-18T02:46:53.914Z,77.78
2023-03-18T02:47:58.302Z,77.67
2023-03-18T02:49:02.624Z,77.68
2023-03-18T02:50:04.893Z,78.06
2023-03-18T02:51:09.001Z,77.95
2023-03-18T02:52:10.877Z,77.96
2023-03-18T02:53:14.158Z,78.29
2023-03-18T02:54:21.245Z,78.30
2023-03-18T02:55:26.973Z,78.27
2023-03-18T02:56:28.570Z,78.53
2023-03-18T02:57:31.326Z,78.78
2023-03-18T02:58:34.539Z,78.62
2023-03-18T02:59:40.263Z,78.36
2023-03-18T03:00:41.894Z,78.72
2023-03-18T03:01:48.157Z,78.95
2023-03-18T03:02:50.750Z,79.08
2023-03-18T03:03:53.660Z,79.17
2023-03-18T03:04:55.270Z,79.12
2023-03-18T03:05:58.107Z,79.08
2023-03-18T03:07:01.430Z,79.39
2023-03-18T03:08:04.598Z,79.53
2023-03-18T03:09:08.351Z,79.62
2023-03-18T03:10:12.462Z,79.78
2023-03-18T03:11:14.293Z,79.65
2023-03-18T03:12:16.779Z,79.60
2023-03-18T03:13:23.000Z,79.82
2023-03-18T03:14:26.909Z,79.81
2023-03-18T03:15:29.327Z,79.69
2023-03-18T03:16:32.100Z,79.83
2023-03-18T03:17:33.629Z,79.89
2023-03-18T03:18:36.687Z,80.03
2023-03-18T03:19:38.449Z,80.06
2023-03-18T03:20:41.762Z,80.01
2023-03-18T03:21:43.339Z,80.41
2023-03-18T03:22:46.490Z,80.28
2023-03-18T03:23:49.619Z,80.26
2023-03-18T03:24:52.386Z,80.36
2023-03-18T03:25:54.252Z,80.45
2023-03-18T03:26:56.956Z,80.52
2023-03-18T03:27:58.828Z,80.55
2023-03-18T03:29:01.562Z,80.38
2023-03-18T03:30:06.944Z,80.67
2023-03-18T03:31:10.642Z,80.86
2023-03-18T03:32:12.222Z,80.61
2023-03-18T03:33:15.543Z,80.91
2023-03-18T03:34:17.111Z,80.78
2023-03-18T03:35:21.396Z,80.87
2023-03-18T03:36:23.190Z,80.89
2023-03-18T03:37:25.742Z,80.82
2023-03-18T03:38:28.375Z,80.90
2023-03-18T03:39:30.054Z,81.00
2023-03-18T03:40:33.905Z,81.09
2023-03-18T03:41:35.698Z,81.07
2023-03-18T03:42:38.351Z,81.23
2023-03-18T03:43:40.637Z,81.11
2023-03-18T03:44:43.370Z,81.19
2023-03-18T03:45:46.417Z,81.55
2023-03-18T03:46:49.186Z,81.66
2023-03-18T03:47:51.341Z,81.62
2023-03-18T03:48:54.036Z,81.58
2023-03-18T03:49:56.220Z,81.58
2023-03-18T03:50:58.759Z,81.62
2023-03-18T03:52:00.312Z,81.66
2023-03-18T03:53:04.006Z,81.58
2023-03-18T03:54:05.569Z,81.54
2023-03-18T03:55:10.329Z,81.79
2023-03-18T03:56:13.731Z,81.74
2023-03-18T03:57:15.239Z,81.72
2023-03-18T03:58:17.714Z,81.76
2023-03-18T03:59:19.243Z,81.93
2023-03-18T04:00:24.369Z,81.89
2023-03-18T04:01:35.392Z,82.03
2023-03-18T04:02:38.097Z,82.24
2023-03-18T04:03:40.697Z,81.72
2023-03-18T04:04:42.425Z,81.73
2023-03-18T04:05:45.046Z,81.97
2023-03-18T04:06:46.574Z,82.11
2023-03-18T04:07:49.884Z,82.03
2023-03-18T04:08:51.548Z,81.87
2023-03-18T04:09:55.812Z,82.17
2023-03-18T04:10:57.789Z,82.39
2023-03-18T04:12:00.378Z,82.26
2023-03-18T04:13:02.253Z,82.28
2023-03-18T04:14:04.836Z,82.59
2023-03-18T04:15:07.894Z,82.52
2023-03-18T04:16:10.504Z,82.62
2023-03-18T04:17:14.103Z,82.54
2023-03-18T04:18:16.833Z,82.79
2023-03-18T04:19:28.913Z,82.59
2023-03-18T04:20:31.813Z,82.95
2023-03-18T04:21:33.503Z,82.50
2023-03-18T04:22:37.501Z,82.53
2023-03-18T04:23:39.030Z,82.76
2023-03-18T04:24:42.492Z,82.82
2023-03-18T04:25:44.619Z,82.97
2023-03-18T04:26:47.097Z,82.84
2023-03-18T04:27:48.688Z,82.79
2023-03-18T04:28:51.978Z,82.97
2023-03-18T04:29:53.572Z,82.77
2023-03-18T04:30:56.047Z,82.67
2023-03-18T04:31:58.892Z,82.67
2023-03-18T04:33:03.282Z,82.82
2023-03-18T04:34:05.130Z,82.89
2023-03-18T04:35:08.749Z,82.79
2023-03-18T04:36:10.556Z,82.63
2023-03-18T04:37:14.388Z,82.38
2023-03-18T04:38:16.072Z,82.50
2023-03-18T04:39:18.898Z,82.29
2023-03-18T04:40:20.708Z,82.16
2023-03-18T04:41:23.660Z,82.25
2023-03-18T04:42:25.624Z,82.10
2023-03-18T04:43:28.368Z,82.17
2023-03-18T04:44:29.873Z,82.26
2023-03-18T04:45:32.385Z,82.14
2023-03-18T04:46:34.038Z,82.37
2023-03-18T04:47:38.042Z,82.31
2023-03-18T04:48:42.214Z,82.00
2023-03-18T04:49:43.863Z,82.16
2023-03-18T04:50:46.759Z,82.18
2023-03-18T04:51:48.321Z,82.20
2023-03-18T04:52:51.457Z,82.34
2023-03-18T04:53:53.643Z,82.28
2023-03-18T04:54:56.534Z,82.20
2023-03-18T04:55:58.127Z,82.28
2023-03-18T04:57:00.665Z,82.19
2023-03-18T04:58:03.313Z,82.31
2023-03-18T04:59:05.467Z,82.28
2023-03-18T05:00:15.174Z,82.16
2023-03-18T05:01:21.207Z,82.28
2023-03-18T05:02:24.077Z,82.23
2023-03-18T05:03:25.835Z,81.71
2023-03-18T05:04:29.853Z,81.99
2023-03-18T05:05:31.687Z,81.92
2023-03-18T05:06:34.640Z,82.28
2023-03-18T05:07:36.729Z,82.05
2023-03-18T05:08:39.596Z,82.10
2023-03-18T05:09:41.484Z,82.03
2023-03-18T05:10:44.945Z,81.96
2023-03-18T05:11:46.485Z,81.92
2023-03-18T05:12:51.472Z,81.82
2023-03-18T05:13:53.025Z,81.72
2023-03-18T05:14:55.709Z,81.83
2023-03-18T05:15:57.355Z,81.78
2023-03-18T05:16:59.982Z,81.64
2023-03-18T05:18:01.675Z,81.79
2023-03-18T05:19:04.219Z,81.39
2023-03-18T05:20:10.022Z,81.72
2023-03-18T05:21:12.887Z,81.73
2023-03-18T05:22:16.308Z,81.55
2023-03-18T05:23:18.885Z,81.54
2023-03-18T05:24:20.447Z,81.55
2023-03-18T05:25:23.002Z,81.45
2023-03-18T05:26:26.937Z,81.73
2023-03-18T05:27:29.769Z,81.43
2023-03-18T05:28:31.476Z,81.58
2023-03-18T05:29:34.160Z,81.45
2023-03-18T05:30:42.924Z,81.42
2023-03-18T05:31:45.583Z,81.48
2023-03-18T05:32:47.274Z,81.55
2023-03-18T05:33:49.889Z,81.51
2023-03-18T05:34:51.554Z,81.25
2023-03-18T05:35:55.561Z,81.17
2023-03-18T05:36:57.600Z,80.96
2023-03-18T05:38:00.316Z,81.25
2023-03-18T05:39:03.138Z,81.17
2023-03-18T05:40:09.748Z,81.19
2023-03-18T05:41:12.722Z,81.17
2023-03-18T05:42:15.292Z,81.26
2023-03-18T05:43:16.957Z,81.07
2023-03-18T05:44:19.555Z,80.88
2023-03-18T05:45:21.265Z,80.96
2023-03-18T05:46:23.796Z,80.91
2023-03-18T05:47:25.449Z,80.88
2023-03-18T05:48:28.001Z,81.13
2023-03-18T05:49:29.609Z,81.11
2023-03-18T05:50:33.086Z,81.10
2023-03-18T05:51:37.358Z,81.01
2023-03-18T05:52:39.856Z,81.33
2023-03-18T05:53:41.429Z,81.12
2023-03-18T05:54:44.620Z,81.24
2023-03-18T05:55:46.543Z,80.96
2023-03-18T05:56:58.124Z,81.22
2023-03-18T05:58:00.271Z,81.08
2023-03-18T05:59:03.351Z,81.20
2023-03-18T06:00:08.119Z,81.00
2023-03-18T06:01:11.609Z,81.32
2023-03-18T06:02:13.284Z,80.93
2023-03-18T06:03:17.076Z,81.25
2023-03-18T06:04:19.291Z,81.45
2023-03-18T06:05:22.636Z,81.46
2023-03-18T06:06:24.707Z,81.58
2023-03-18T06:07:28.808Z,81.50
2023-03-18T06:08:30.489Z,81.30
2023-03-18T06:09:34.224Z,81.49
2023-03-18T06:10:35.885Z,81.55
2023-03-18T06:11:39.953Z,81.10
2023-03-18T06:12:42.254Z,81.48
2023-03-18T06:13:45.055Z,81.62
2023-03-18T06:14:46.820Z,81.48
2023-03-18T06:15:49.307Z,81.55
2023-03-18T06:16:50.892Z,81.78
2023-03-18T06:17:53.620Z,81.65
2023-03-18T06:18:55.417Z,81.63
2023-03-18T06:19:59.009Z,81.69
2023-03-18T06:21:00.707Z,81.38
2023-03-18T06:22:03.278Z,81.58
2023-03-18T06:23:06.147Z,81.38
2023-03-18T06:24:10.609Z,81.19
2023-03-18T06:25:12.120Z,81.42
2023-03-18T06:26:15.118Z,81.27
2023-03-18T06:27:16.692Z,81.31
2023-03-18T06:28:19.575Z,81.16
2023-03-18T06:29:21.240Z,81.21
2023-03-18T06:30:24.287Z,81.03
2023-03-18T06:31:28.963Z,81.17
2023-03-18T06:32:31.727Z,81.20
2023-03-18T06:33:33.256Z,80.86
2023-03-18T06:34:36.170Z,81.32
2023-03-18T06:35:37.986Z,81.17
2023-03-18T06:36:40.547Z,81.06
2023-03-18T06:37:43.300Z,81.11
2023-03-18T06:38:47.297Z,80.99
2023-03-18T06:39:49.371Z,81.16
2023-03-18T06:40:52.225Z,81.04
2023-03-18T06:41:54.925Z,81.48
2023-03-18T06:42:57.540Z,80.96
2023-03-18T06:43:59.391Z,81.06
2023-03-18T06:45:01.930Z,81.32
2023-03-18T06:46:05.144Z,81.37
2023-03-18T06:47:06.854Z,81.33
2023-03-18T06:48:10.366Z,81.44
2023-03-18T06:49:12.623Z,81.42
2023-03-18T06:50:15.239Z,81.53
2023-03-18T06:51:16.746Z,81.61
2023-03-18T06:52:19.945Z,81.77
2023-03-18T06:53:21.959Z,81.54
2023-03-18T06:54:26.185Z,81.46
2023-03-18T06:55:28.116Z,81.36
2023-03-18T06:56:30.639Z,81.44
2023-03-18T06:57:32.700Z,81.34
2023-03-18T06:58:35.267Z,80.99
2023-03-18T06:59:37.394Z,81.33
2023-03-18T07:00:41.460Z,81.55
2023-03-18T07:01:45.516Z,81.03
2023-03-18T07:02:48.269Z,81.24
2023-03-18T07:03:51.041Z,81.01
2023-03-18T07:04:54.575Z,80.92
2023-03-18T07:05:57.211Z,80.94
2023-03-18T07:07:00.244Z,80.78
2023-03-18T07:08:02.105Z,80.65
2023-03-18T07:09:04.870Z,80.61
2023-03-18T07:10:11.583Z,80.79
2023-03-18T07:11:14.208Z,80.54
2023-03-18T07:12:16.437Z,80.58
2023-03-18T07:13:19.301Z,80.36
2023-03-18T07:14:21.441Z,80.43
2023-03-18T07:15:26.380Z,80.32
2023-03-18T07:16:28.012Z,80.44
2023-03-18T07:17:30.885Z,80.20
2023-03-18T07:18:32.713Z,80.14
2023-03-18T07:19:35.433Z,79.92
2023-03-18T07:20:37.212Z,79.89
2023-03-18T07:21:42.272Z,79.82
2023-03-18T07:22:45.451Z,80.10
2023-03-18T07:23:48.162Z,79.73
2023-03-18T07:24:51.314Z,79.65
2023-03-18T07:25:55.184Z,79.57
2023-03-18T07:26:57.470Z,79.69
2023-03-18T07:28:01.136Z,79.56
2023-03-18T07:29:03.392Z,79.83
2023-03-18T07:30:06.657Z,79.48
2023-03-18T07:31:08.688Z,79.54
2023-03-18T07:32:11.288Z,79.68
2023-03-18T07:33:17.363Z,79.53
2023-03-18T07:34:21.193Z,79.65
2023-03-18T07:35:22.810Z,79.45
2023-03-18T07:36:25.614Z,79.47
2023-03-18T07:37:27.440Z,79.49
2023-03-18T07:38:31.410Z,79.20
2023-03-18T07:39:33.579Z,79.43
2023-03-18T07:40:36.411Z,79.09
2023-03-18T07:41:40.313Z,79.52
2023-03-18T07:42:41.873Z,79.37
2023-03-18T07:43:45.052Z,78.94
2023-03-18T07:44:46.631Z,79.09
2023-03-18T07:45:49.222Z,79.25
2023-03-18T07:46:50.895Z,78.95
2023-03-18T07:47:53.721Z,78.82
2023-03-18T07:48:55.422Z,78.68
2023-03-18T07:49:59.003Z,78.50
2023-03-18T07:51:01.151Z,78.68
2023-03-18T07:52:04.599Z,78.42
2023-03-18T07:53:06.345Z,78.29
2023-03-18T07:54:08.843Z,78.37
2023-03-18T07:55:10.562Z,78.54
2023-03-18T07:56:13.131Z,78.46
2023-03-18T07:57:16.092Z,78.41
2023-03-18T07:58:18.619Z,78.16
2023-03-18T07:59:20.755Z,78.14
2023-03-18T08:00:24.052Z,77.95
2023-03-18T08:01:32.968Z,78.04
2023-03-18T08:02:36.137Z,77.89
2023-03-18T08:03:37.809Z,77.62
2023-03-18T08:04:40.537Z,77.83
2023-03-18T08:05:42.171Z,77.42
2023-03-18T08:06:44.914Z,77.42
2023-03-18T08:07:46.477Z,77.13
2023-03-18T08:08:49.209Z,77.10
2023-03-18T08:09:50.923Z,77.13
2023-03-18T08:10:58.471Z,77.30
2023-03-18T08:12:00.265Z,77.02
2023-03-18T08:13:04.804Z,76.96
2023-03-18T08:14:06.342Z,76.77
2023-03-18T08:15:11.347Z,76.58
2023-03-18T08:16:13.439Z,76.43
2023-03-18T08:17:16.098Z,76.45
2023-03-18T08:18:17.728Z,76.42
2023-03-18T08:19:20.286Z,76.30
2023-03-18T08:20:22.983Z,76.00
2023-03-18T08:21:25.594Z,75.83
2023-03-18T08:22:28.056Z,76.00
2023-03-18T08:23:30.585Z,75.90
2023-03-18T08:24:32.744Z,75.69
2023-03-18T08:25:35.718Z,75.66
2023-03-18T08:26:37.502Z,75.48
2023-03-18T08:27:40.104Z,75.31
2023-03-18T08:28:44.609Z,75.28
2023-03-18T08:29:46.679Z,75.42
2023-03-18T08:30:49.218Z,74.89
2023-03-18T08:31:51.241Z,75.06
2023-03-18T08:32:53.893Z,75.01
2023-03-18T08:33:57.036Z,74.64
2023-03-18T08:34:59.577Z,74.60
2023-03-18T08:36:02.562Z,74.35
2023-03-18T08:37:06.004Z,74.10
2023-03-18T08:38:07.587Z,73.88
2023-03-18T08:39:14.486Z,73.54
2023-03-18T08:40:17.799Z,73.59
2023-03-18T08:41:20.537Z,73.52
2023-03-18T08:42:22.273Z,73.64
2023-03-18T08:43:25.698Z,73.19
2023-03-18T08:44:28.583Z,73.14
2023-03-18T08:45:31.440Z,73.37
2023-03-18T08:46:33.384Z,73.07
2023-03-18T08:47:36.018Z,73.05
2023-03-18T08:48:43.399Z,73.10
2023-03-18T08:49:46.123Z,72.96
2023-03-18T08:50:48.158Z,73.05
2023-03-18T08:51:50.738Z,72.95
2023-03-18T08:52:52.350Z,73.04
2023-03-18T08:53:55.125Z,72.80
2023-03-18T08:54:56.805Z,72.92
2023-03-18T08:56:02.799Z,72.80
2023-03-18T08:57:05.642Z,72.88
2023-03-18T08:58:08.331Z,73.07
2023-03-18T08:59:11.735Z,72.83
2023-03-18T09:00:16.141Z,72.78
2023-03-18T09:01:24.088Z,72.49
2023-03-18T09:02:25.945Z,72.44
2023-03-18T09:03:28.598Z,72.57
2023-03-18T09:04:30.412Z,72.15
2023-03-18T09:05:34.281Z,72.10
2023-03-18T09:06:36.358Z,72.07
2023-03-18T09:07:48.907Z,72.18
2023-03-18T09:08:50.634Z,72.03
2023-03-18T09:09:54.016Z,72.06
2023-03-18T09:10:55.559Z,72.26
2023-03-18T09:11:58.487Z,72.11
2023-03-18T09:13:01.714Z,72.19
2023-03-18T09:14:03.415Z,72.31
2023-03-18T09:15:07.374Z,72.19
2023-03-18T09:16:10.740Z,72.05
2023-03-18T09:17:14.528Z,72.05
2023-03-18T09:18:16.817Z,72.02
2023-03-18T09:19:19.348Z,72.03
2023-03-18T09:20:22.215Z,71.99
2023-03-18T09:21:25.081Z,71.96
2023-03-18T09:22:27.595Z,71.80
2023-03-18T09:23:30.154Z,72.05
2023-03-18T09:24:31.734Z,71.86
2023-03-18T09:25:35.160Z,71.93
2023-03-18T09:26:36.941Z,72.01
2023-03-18T09:27:39.468Z,71.90
2023-03-18T09:28:41.004Z,71.75
2023-03-18T09:29:43.503Z,71.58
2023-03-18T09:30:45.107Z,71.47
2023-03-18T09:31:49.146Z,71.46
2023-03-18T09:32:50.851Z,71.38
2023-03-18T09:33:53.565Z,71.29
2023-03-18T09:34:55.219Z,71.16
2023-03-18T09:35:57.859Z,70.95
2023-03-18T09:36:59.579Z,70.97
2023-03-18T09:38:02.239Z,70.83
2023-03-18T09:39:03.982Z,70.82
2023-03-18T09:40:08.628Z,70.89
2023-03-18T09:41:24.854Z,70.84
2023-03-18T09:42:40.439Z,70.53
2023-03-18T09:43:54.638Z,70.55
2023-03-18T09:45:00.844Z,70.28
2023-03-18T09:46:09.395Z,70.54
2023-03-18T09:47:25.403Z,70.55
2023-03-18T09:48:44.234Z,70.33
2023-03-18T09:49:59.192Z,70.46
2023-03-18T09:51:07.666Z,70.68
2023-03-18T09:52:22.272Z,70.41
2023-03-18T09:53:30.985Z,70.53
2023-03-18T09:54:39.143Z,70.31
2023-03-18T09:55:46.546Z,69.91
2023-03-18T09:56:51.076Z,70.51
2023-03-18T09:57:58.386Z,70.24
2023-03-18T09:59:04.317Z,70.26
2023-03-18T10:00:17.510Z,70.00
2023-03-18T10:01:27.414Z,70.00
2023-03-18T10:02:36.532Z,69.92
2023-03-18T10:03:43.710Z,69.64
2023-03-18T10:04:50.993Z,70.09
2023-03-18T10:05:57.531Z,70.03
2023-03-18T10:07:05.211Z,70.13
2023-03-18T10:08:13.917Z,70.00
2023-03-18T10:09:26.188Z,69.99
2023-03-18T10:10:33.642Z,69.52
2023-03-18T10:11:40.442Z,69.48
2023-03-18T10:12:58.108Z,69.67
2023-03-18T10:14:17.516Z,69.71
2023-03-18T10:15:24.884Z,69.60
2023-03-18T10:16:31.935Z,69.59
2023-03-18T10:17:40.016Z,69.66
2023-03-18T10:18:44.617Z,69.21
2023-03-18T10:19:50.714Z,69.42
2023-03-18T10:21:02.717Z,69.08
2023-03-18T10:22:23.321Z,69.38
2023-03-18T10:23:37.160Z,69.16
2023-03-18T10:24:47.950Z,69.06
2023-03-18T10:25:54.482Z,69.13
2023-03-18T10:27:08.732Z,69.22
2023-03-18T10:28:33.396Z,68.65
2023-03-18T10:29:42.815Z,68.78
2023-03-18T10:30:57.683Z,68.93
2023-03-18T10:32:09.293Z,68.70
2023-03-18T10:33:22.582Z,68.70
2023-03-18T10:34:31.090Z,68.72
2023-03-18T10:35:39.652Z,68.56
2023-03-18T10:36:50.923Z,68.17
2023-03-18T10:38:02.268Z,68.19
2023-03-18T10:39:07.843Z,68.10
2023-03-18T10:40:15.795Z,68.03
2023-03-18T10:41:25.373Z,68.05
2023-03-18T10:42:38.090Z,67.95
2023-03-18T10:43:40.819Z,67.95
2023-03-18T10:44:42.872Z,67.76
2023-03-18T10:45:59.674Z,68.00
2023-03-18T10:47:06.231Z,68.00
2023-03-18T10:48:20.119Z,68.00
2023-03-18T10:49:25.626Z,67.97
2023-03-18T10:50:34.922Z,67.74
2023-03-18T10:51:43.530Z,67.53
2023-03-18T10:52:53.972Z,67.28
2023-03-18T10:54:03.506Z,67.37
2023-03-18T10:55:14.474Z,67.23
2023-03-18T10:56:17.014Z,67.14
2023-03-18T10:57:19.878Z,67.09
2023-03-18T10:58:22.885Z,66.71
2023-03-18T10:59:26.381Z,66.73
2023-03-18T11:00:33.009Z,66.68
2023-03-18T11:01:40.761Z,66.43
2023-03-18T11:02:42.584Z,66.12
2023-03-18T11:03:51.565Z,65.94
2023-03-18T11:04:57.738Z,65.65
2023-03-18T11:06:04.372Z,65.44
2023-03-18T11:07:12.601Z,65.26
2023-03-18T11:08:32.525Z,65.23
2023-03-18T11:09:36.851Z,64.95
2023-03-18T11:10:45.775Z,64.93
2023-03-18T11:11:49.764Z,64.87
2023-03-18T11:12:55.607Z,64.65
2023-03-18T11:13:59.753Z,64.74
2023-03-18T11:15:06.678Z,64.62
2023-03-18T11:16:22.546Z,64.20
2023-03-18T11:17:29.217Z,64.20
2023-03-18T11:18:34.076Z,63.98
2023-03-18T11:19:41.177Z,63.73
2023-03-18T11:20:45.504Z,63.67
2023-03-18T11:22:06.762Z,63.83
2023-03-18T11:23:17.530Z,63.71
2023-03-18T11:24:36.179Z,63.67
2023-03-18T11:25:40.506Z,63.89
2023-03-18T11:26:48.591Z,63.80
2023-03-18T11:27:52.959Z,63.67
2023-03-18T11:28:56.804Z,63.68
2023-03-18T11:30:01.447Z,63.54
2023-03-18T11:31:06.411Z,63.44
2023-03-18T11:32:25.695Z,63.26
2023-03-18T11:33:32.875Z,63.16
2023-03-18T11:34:37.677Z,63.22
2023-03-18T11:35:44.800Z,63.17
2023-03-18T11:36:54.157Z,63.02
2023-03-18T11:37:56.758Z,63.04
2023-03-18T11:39:03.847Z,63.29
2023-03-18T11:40:29.823Z,63.15
2023-03-18T11:41:31.811Z,63.28
2023-03-18T11:42:34.674Z,63.18
2023-03-18T11:43:37.788Z,63.14
2023-03-18T11:44:40.387Z,63.01
2023-03-18T11:45:56.789Z,63.05
2023-03-18T11:47:07.338Z,62.90
2023-03-18T11:48:15.372Z,62.85
2023-03-18T11:49:23.088Z,62.65
2023-03-18T11:50:35.191Z,62.85
2023-03-18T11:51:47.541Z,62.75
2023-03-18T11:52:56.890Z,62.73
2023-03-18T11:54:31.109Z,62.52
2023-03-18T11:55:42.186Z,62.51
2023-03-18T11:56:48.377Z,62.52
2023-03-18T11:58:29.553Z,62.47
2023-03-18T11:59:42.007Z,62.31
2023-03-18T12:00:55.227Z,62.41
2023-03-18T12:02:19.512Z,62.14
2023-03-18T12:03:45.647Z,61.92
2023-03-18T12:05:01.126Z,61.72
2023-03-18T12:06:14.456Z,61.62
2023-03-18T12:07:32.415Z,61.28
2023-03-18T12:08:47.890Z,61.22
2023-03-18T12:09:56.825Z,60.87
2023-03-18T12:11:07.645Z,60.85
2023-03-18T12:12:29.044Z,60.57
2023-03-18T12:13:39.513Z,60.47
2023-03-18T12:14:47.691Z,60.04
2023-03-18T12:15:54.842Z,60.04
2023-03-18T12:17:08.055Z,59.73
2023-03-18T12:18:26.623Z,59.61
2023-03-18T12:19:45.994Z,59.30
2023-03-18T12:20:50.615Z,59.37
2023-03-18T12:22:17.767Z,59.08
2023-03-18T12:23:41.163Z,58.97
2023-03-18T12:24:56.543Z,58.89
2023-03-18T12:26:05.243Z,59.00
2023-03-18T12:27:15.263Z,58.86
2023-03-18T12:28:31.956Z,58.77
2023-03-18T12:29:55.069Z,58.53
2023-03-18T12:31:14.046Z,58.49
2023-03-18T12:32:27.397Z,58.66
2023-03-18T12:33:42.970Z,58.44
2023-03-18T12:35:01.046Z,58.33
2023-03-18T12:36:15.001Z,57.91
2023-03-18T12:37:31.825Z,58.17
2023-03-18T12:39:05.733Z,57.76
2023-03-18T12:40:31.107Z,57.97
2023-03-18T12:41:46.789Z,58.02
2023-03-18T12:43:17.273Z,58.09
2023-03-18T12:44:30.915Z,58.19
2023-03-18T12:45:37.249Z,58.24
2023-03-18T12:46:44.139Z,58.24
2023-03-18T12:47:49.767Z,57.91
2023-03-18T12:48:59.116Z,57.96
2023-03-18T12:50:04.695Z,57.82
2023-03-18T12:51:12.111Z,57.81
2023-03-18T12:52:27.379Z,57.76
2023-03-18T12:53:35.233Z,57.48
2023-03-18T12:54:43.767Z,57.42
2023-03-18T12:55:49.215Z,57.33
2023-03-18T12:56:57.994Z,57.31
2023-03-18T12:58:03.656Z,57.25
2023-03-18T12:59:09.267Z,57.24
2023-03-18T13:00:23.666Z,57.21
2023-03-18T13:01:36.969Z,57.00
2023-03-18T13:02:44.174Z,57.08
2023-03-18T13:03:52.533Z,56.69
2023-03-18T13:04:59.426Z,56.71
2023-03-18T13:06:05.034Z,56.81
2023-03-18T13:07:17.200Z,56.61
2023-03-18T13:08:28.538Z,56.43
2023-03-18T13:09:39.360Z,56.34
2023-03-18T13:10:43.871Z,56.15
2023-03-18T13:12:09.950Z,56.15
2023-03-18T13:13:13.009Z,56.00
2023-03-18T13:14:22.669Z,55.98
2023-03-18T13:15:32.727Z,56.25
2023-03-18T13:16:37.528Z,56.12
2023-03-18T13:17:42.093Z,56.21
2023-03-18T13:18:48.399Z,56.46
2023-03-18T13:19:51.588Z,56.18
2023-03-18T13:20:58.680Z,56.34
2023-03-18T13:22:16.284Z,56.32
2023-03-18T13:23:36.552Z,56.03
2023-03-18T13:24:54.028Z,56.23
2023-03-18T13:26:04.600Z,56.46
2023-03-18T13:27:26.706Z,56.28
2023-03-18T13:28:42.471Z,56.20
2023-03-18T13:29:54.048Z,56.06
2023-03-18T13:31:10.635Z,55.93
2023-03-18T13:32:33.467Z,55.99
2023-03-18T13:33:56.043Z,55.99
2023-03-18T13:35:19.185Z,55.89
2023-03-18T13:36:45.433Z,56.27
2023-03-18T13:38:20.212Z,56.13
2023-03-18T13:39:38.193Z,56.34
2023-03-18T13:40:52.261Z,56.53
2023-03-18T13:42:19.149Z,56.52
2023-03-18T13:43:24.501Z,56.58
2023-03-18T13:44:35.446Z,56.61
2023-03-18T13:45:41.204Z,56.52
2023-03-18T13:46:53.527Z,56.72
2023-03-18T13:47:59.088Z,56.80
2023-03-18T13:49:03.844Z,56.97
2023-03-18T13:50:07.387Z,57.15
2023-03-18T13:51:40.552Z,57.81
2023-03-18T13:52:44.234Z,58.55
2023-03-18T13:53:50.558Z,59.09
2023-03-18T13:54:53.977Z,59.38
2023-03-18T13:56:05.098Z,60.19
2023-03-18T13:57:18.744Z,61.07
2023-03-18T13:58:25.676Z,61.79
2023-03-18T13:59:43.107Z,62.62
2023-03-18T14:00:47.495Z,63.52
2023-03-18T14:01:50.801Z,64.17
2023-03-18T14:03:17.084Z,64.97
2023-03-18T14:04:32.418Z,65.78
2023-03-18T14:05:40.372Z,66.57
2023-03-18T14:06:53.570Z,66.96